sensor_id;sensor_type;location;lat;lon;timestamp;pressure;altitude;pressure_sealevel;temperature;humidity
77147;BME280;66121;52.584;9.694;2023-06-26T00:02:06;101042.94;;;20.57;84.29
77147;BME280;66121;52.584;9.694;2023-06-26T00:04:32;101055.06;;;20.54;83.56
77147;BME280;66121;52.584;9.694;2023-06-26T00:06:57;101051.13;;;20.51;83.28
77147;BME280;66121;52.584;9.694;2023-06-26T00:09:22;101054.28;;;20.53;83.49
77147;BME280;66121;52.584;9.694;2023-06-26T00:11:48;101027.69;;;20.29;83.02
77147;BME280;66121;52.584;9.694;2023-06-26T00:14:13;101042.31;;;20.37;83.08
77147;BME280;66121;52.584;9.694;2023-06-26T00:16:38;101037.75;;;20.27;83.77
77147;BME280;66121;52.584;9.694;2023-06-26T00:19:03;101038.13;;;20.29;84.72
77147;BME280;66121;52.584;9.694;2023-06-26T00:21:29;101031.03;;;20.24;85.44
77147;BME280;66121;52.584;9.694;2023-06-26T00:23:54;101028.13;;;20.28;84.94
77147;BME280;66121;52.584;9.694;2023-06-26T00:26:19;101030.50;;;20.29;85.70
77147;BME280;66121;52.584;9.694;2023-06-26T00:28:45;101029.34;;;20.27;85.18
77147;BME280;66121;52.584;9.694;2023-06-26T00:31:10;101031.81;;;20.25;84.88
77147;BME280;66121;52.584;9.694;2023-06-26T00:33:35;101027.00;;;20.25;85.63
77147;BME280;66121;52.584;9.694;2023-06-26T00:36:00;101029.81;;;20.25;85.50
77147;BME280;66121;52.584;9.694;2023-06-26T00:38:26;101026.66;;;20.23;85.15
77147;BME280;66121;52.584;9.694;2023-06-26T00:40:51;101006.16;;;20.10;85.21
77147;BME280;66121;52.584;9.694;2023-06-26T00:43:16;101023.22;;;20.16;85.74
77147;BME280;66121;52.584;9.694;2023-06-26T00:45:42;101021.50;;;20.06;86.36
77147;BME280;66121;52.584;9.694;2023-06-26T00:48:09;101020.63;;;20.09;85.60
77147;BME280;66121;52.584;9.694;2023-06-26T00:50:37;101016.97;;;19.96;86.47
77147;BME280;66121;52.584;9.694;2023-06-26T00:53:02;101019.59;;;19.86;87.13
77147;BME280;66121;52.584;9.694;2023-06-26T00:55:29;101024.16;;;19.97;86.87
77147;BME280;66121;52.584;9.694;2023-06-26T00:57:55;101012.34;;;19.89;86.85
77147;BME280;66121;52.584;9.694;2023-06-26T01:00:21;101014.75;;;19.87;87.17
77147;BME280;66121;52.584;9.694;2023-06-26T01:02:46;101008.72;;;19.72;87.06
77147;BME280;66121;52.584;9.694;2023-06-26T01:05:12;101013.53;;;19.72;87.87
77147;BME280;66121;52.584;9.694;2023-06-26T01:07:38;101008.50;;;19.67;88.04
77147;BME280;66121;52.584;9.694;2023-06-26T01:10:07;101001.66;;;19.68;88.57
77147;BME280;66121;52.584;9.694;2023-06-26T01:12:33;101011.97;;;19.71;87.95
77147;BME280;66121;52.584;9.694;2023-06-26T01:14:59;100994.50;;;19.67;88.87
77147;BME280;66121;52.584;9.694;2023-06-26T01:17:25;100989.84;;;19.60;89.30
77147;BME280;66121;52.584;9.694;2023-06-26T01:19:52;100988.72;;;19.58;89.62
77147;BME280;66121;52.584;9.694;2023-06-26T01:25:26;100983.72;;;19.65;89.71
77147;BME280;66121;52.584;9.694;2023-06-26T01:27:55;100988.09;;;19.66;89.44
77147;BME280;66121;52.584;9.694;2023-06-26T01:30:21;100983.31;;;19.67;88.68
77147;BME280;66121;52.584;9.694;2023-06-26T01:32:48;100969.44;;;19.60;88.44
77147;BME280;66121;52.584;9.694;2023-06-26T01:35:14;100977.59;;;19.70;87.93
77147;BME280;66121;52.584;9.694;2023-06-26T01:37:40;100975.47;;;19.90;86.07
77147;BME280;66121;52.584;9.694;2023-06-26T01:40:06;100977.63;;;20.15;83.86
77147;BME280;66121;52.584;9.694;2023-06-26T01:42:32;100963.78;;;20.24;83.13
77147;BME280;66121;52.584;9.694;2023-06-26T01:45:03;100968.28;;;20.34;82.28
77147;BME280;66121;52.584;9.694;2023-06-26T01:47:32;100962.69;;;20.34;83.12
77147;BME280;66121;52.584;9.694;2023-06-26T01:50:07;100955.91;;;20.48;81.62
77147;BME280;66121;52.584;9.694;2023-06-26T01:52:43;100971.44;;;20.65;80.47
77147;BME280;66121;52.584;9.694;2023-06-26T01:55:30;100964.50;;;20.82;79.44
77147;BME280;66121;52.584;9.694;2023-06-26T01:57:59;100959.09;;;20.75;80.08
77147;BME280;66121;52.584;9.694;2023-06-26T02:00:25;100943.97;;;20.73;79.22
77147;BME280;66121;52.584;9.694;2023-06-26T02:02:51;100951.16;;;20.74;80.05
77147;BME280;66121;52.584;9.694;2023-06-26T02:05:17;100948.09;;;20.68;79.53
77147;BME280;66121;52.584;9.694;2023-06-26T02:07:42;100942.00;;;20.57;80.50
77147;BME280;66121;52.584;9.694;2023-06-26T02:10:09;100952.81;;;20.71;79.00
77147;BME280;66121;52.584;9.694;2023-06-26T02:12:36;100949.13;;;20.62;79.94
77147;BME280;66121;52.584;9.694;2023-06-26T02:15:02;100949.00;;;20.78;78.31
77147;BME280;66121;52.584;9.694;2023-06-26T02:17:27;100944.28;;;20.75;78.65
77147;BME280;66121;52.584;9.694;2023-06-26T02:19:53;100944.88;;;20.82;78.11
77147;BME280;66121;52.584;9.694;2023-06-26T02:22:18;100941.81;;;20.77;77.96
77147;BME280;66121;52.584;9.694;2023-06-26T02:24:43;100946.75;;;20.73;78.21
77147;BME280;66121;52.584;9.694;2023-06-26T02:27:09;100931.03;;;20.63;78.08
77147;BME280;66121;52.584;9.694;2023-06-26T02:29:35;100929.94;;;20.73;77.80
77147;BME280;66121;52.584;9.694;2023-06-26T02:32:01;100933.06;;;20.75;77.23
77147;BME280;66121;52.584;9.694;2023-06-26T02:34:26;100920.50;;;20.67;77.99
77147;BME280;66121;52.584;9.694;2023-06-26T02:36:52;100933.88;;;20.75;77.24
77147;BME280;66121;52.584;9.694;2023-06-26T02:39:20;100927.25;;;20.82;76.48
77147;BME280;66121;52.584;9.694;2023-06-26T02:41:46;100921.75;;;20.78;77.08
77147;BME280;66121;52.584;9.694;2023-06-26T02:44:11;100916.81;;;20.70;77.25
77147;BME280;66121;52.584;9.694;2023-06-26T02:46:37;100927.69;;;20.68;78.16
77147;BME280;66121;52.584;9.694;2023-06-26T02:49:03;100922.19;;;20.51;78.44
77147;BME280;66121;52.584;9.694;2023-06-26T02:51:28;100913.03;;;20.35;79.13
77147;BME280;66121;52.584;9.694;2023-06-26T02:53:53;100912.97;;;20.22;80.38
77147;BME280;66121;52.584;9.694;2023-06-26T02:56:19;100910.28;;;20.19;80.44
77147;BME280;66121;52.584;9.694;2023-06-26T02:58:44;100908.09;;;20.10;81.64
77147;BME280;66121;52.584;9.694;2023-06-26T03:01:09;100905.25;;;19.98;81.49
77147;BME280;66121;52.584;9.694;2023-06-26T03:03:34;100904.91;;;19.96;83.30
77147;BME280;66121;52.584;9.694;2023-06-26T03:06:06;100903.88;;;19.89;83.86
77147;BME280;66121;52.584;9.694;2023-06-26T03:08:31;100900.06;;;19.83;83.97
77147;BME280;66121;52.584;9.694;2023-06-26T03:10:57;100892.88;;;19.82;82.80
77147;BME280;66121;52.584;9.694;2023-06-26T03:13:22;100906.06;;;19.82;83.52
77147;BME280;66121;52.584;9.694;2023-06-26T03:15:47;100891.47;;;19.74;83.37
77147;BME280;66121;52.584;9.694;2023-06-26T03:18:13;100898.66;;;19.75;83.56
77147;BME280;66121;52.584;9.694;2023-06-26T03:20:38;100890.47;;;19.68;83.60
77147;BME280;66121;52.584;9.694;2023-06-26T03:23:03;100882.59;;;19.63;84.66
77147;BME280;66121;52.584;9.694;2023-06-26T03:25:29;100878.91;;;19.66;84.74
77147;BME280;66121;52.584;9.694;2023-06-26T03:27:54;100886.00;;;19.71;83.68
77147;BME280;66121;52.584;9.694;2023-06-26T03:30:19;100879.78;;;19.63;84.87
77147;BME280;66121;52.584;9.694;2023-06-26T03:32:45;100887.75;;;19.65;84.86
77147;BME280;66121;52.584;9.694;2023-06-26T03:35:10;100884.94;;;19.65;84.39
77147;BME280;66121;52.584;9.694;2023-06-26T03:37:35;100887.75;;;19.65;84.44
77147;BME280;66121;52.584;9.694;2023-06-26T03:40:00;100879.25;;;19.68;84.28
77147;BME280;66121;52.584;9.694;2023-06-26T03:42:26;100887.66;;;19.97;80.50
77147;BME280;66121;52.584;9.694;2023-06-26T03:44:51;100885.31;;;19.96;82.36
77147;BME280;66121;52.584;9.694;2023-06-26T03:47:16;100879.03;;;19.91;81.87
77147;BME280;66121;52.584;9.694;2023-06-26T03:49:42;100879.97;;;20.01;81.97
77147;BME280;66121;52.584;9.694;2023-06-26T03:52:07;100884.47;;;20.11;80.74
77147;BME280;66121;52.584;9.694;2023-06-26T03:54:32;100881.75;;;20.24;79.57
77147;BME280;66121;52.584;9.694;2023-06-26T03:56:58;100878.16;;;20.23;80.31
77147;BME280;66121;52.584;9.694;2023-06-26T03:59:24;100861.84;;;20.18;81.59
77147;BME280;66121;52.584;9.694;2023-06-26T04:01:49;100873.06;;;20.18;81.31
77147;BME280;66121;52.584;9.694;2023-06-26T04:04:14;100871.06;;;20.19;80.31
77147;BME280;66121;52.584;9.694;2023-06-26T04:06:39;100879.72;;;20.24;81.58
77147;BME280;66121;52.584;9.694;2023-06-26T04:09:05;100859.66;;;20.26;81.04
77147;BME280;66121;52.584;9.694;2023-06-26T04:11:30;100868.06;;;20.26;82.23
77147;BME280;66121;52.584;9.694;2023-06-26T04:13:56;100868.75;;;20.30;81.59
77147;BME280;66121;52.584;9.694;2023-06-26T04:16:21;100862.72;;;20.31;81.52
77147;BME280;66121;52.584;9.694;2023-06-26T04:18:50;100863.19;;;20.55;79.25
77147;BME280;66121;52.584;9.694;2023-06-26T04:21:15;100871.81;;;20.61;80.74
77147;BME280;66121;52.584;9.694;2023-06-26T04:23:41;100864.41;;;20.79;78.91
77147;BME280;66121;52.584;9.694;2023-06-26T04:26:07;100853.56;;;21.06;77.44
77147;BME280;66121;52.584;9.694;2023-06-26T04:28:34;100855.88;;;21.33;74.94
77147;BME280;66121;52.584;9.694;2023-06-26T04:31:00;100853.25;;;21.51;73.10
77147;BME280;66121;52.584;9.694;2023-06-26T04:33:26;100849.88;;;21.78;72.61
77147;BME280;66121;52.584;9.694;2023-06-26T04:35:52;100847.84;;;21.91;71.08
77147;BME280;66121;52.584;9.694;2023-06-26T04:38:18;100844.34;;;22.09;70.71
77147;BME280;66121;52.584;9.694;2023-06-26T04:40:44;100839.75;;;22.24;70.01
77147;BME280;66121;52.584;9.694;2023-06-26T04:43:09;100837.31;;;22.26;69.71
77147;BME280;66121;52.584;9.694;2023-06-26T04:45:35;100828.13;;;22.34;68.36
77147;BME280;66121;52.584;9.694;2023-06-26T04:48:00;100831.16;;;22.71;68.38
77147;BME280;66121;52.584;9.694;2023-06-26T04:50:25;100834.22;;;22.64;67.21
77147;BME280;66121;52.584;9.694;2023-06-26T04:52:51;100825.91;;;22.91;68.17
77147;BME280;66121;52.584;9.694;2023-06-26T04:55:16;100834.66;;;22.93;66.53
77147;BME280;66121;52.584;9.694;2023-06-26T04:57:41;100825.97;;;23.27;67.16
77147;BME280;66121;52.584;9.694;2023-06-26T05:00:07;100809.91;;;23.37;66.26
77147;BME280;66121;52.584;9.694;2023-06-26T05:02:36;100825.66;;;23.34;65.47
77147;BME280;66121;52.584;9.694;2023-06-26T05:05:01;100827.59;;;23.73;66.32
77147;BME280;66121;52.584;9.694;2023-06-26T05:07:26;100820.38;;;24.09;64.40
77147;BME280;66121;52.584;9.694;2023-06-26T05:09:52;100825.88;;;24.12;62.95
77147;BME280;66121;52.584;9.694;2023-06-26T05:12:17;100819.59;;;24.08;63.70
77147;BME280;66121;52.584;9.694;2023-06-26T05:14:42;100820.06;;;24.25;62.08
77147;BME280;66121;52.584;9.694;2023-06-26T05:17:08;100816.69;;;24.45;62.21
77147;BME280;66121;52.584;9.694;2023-06-26T05:19:33;100810.47;;;24.31;62.05
77147;BME280;66121;52.584;9.694;2023-06-26T05:21:58;100811.09;;;24.36;61.34
77147;BME280;66121;52.584;9.694;2023-06-26T05:24:24;100815.84;;;24.62;60.47
77147;BME280;66121;52.584;9.694;2023-06-26T05:26:51;100809.84;;;24.69;60.01
77147;BME280;66121;52.584;9.694;2023-06-26T05:29:16;100809.38;;;24.71;59.50
77147;BME280;66121;52.584;9.694;2023-06-26T05:31:42;100795.31;;;25.18;60.51
77147;BME280;66121;52.584;9.694;2023-06-26T05:34:10;100812.75;;;25.17;59.85
77147;BME280;66121;52.584;9.694;2023-06-26T05:36:36;100806.38;;;25.31;59.29
77147;BME280;66121;52.584;9.694;2023-06-26T05:39:02;100800.97;;;25.42;58.23
77147;BME280;66121;52.584;9.694;2023-06-26T05:41:28;100806.81;;;25.77;59.47
77147;BME280;66121;52.584;9.694;2023-06-26T05:43:53;100795.13;;;25.69;58.71
77147;BME280;66121;52.584;9.694;2023-06-26T05:46:21;100793.63;;;25.59;58.84
77147;BME280;66121;52.584;9.694;2023-06-26T05:48:47;100797.53;;;25.38;57.66
77147;BME280;66121;52.584;9.694;2023-06-26T05:51:12;100795.63;;;25.82;59.14
77147;BME280;66121;52.584;9.694;2023-06-26T05:53:38;100802.53;;;25.67;55.89
77147;BME280;66121;52.584;9.694;2023-06-26T05:56:04;100795.13;;;25.84;58.10
77147;BME280;66121;52.584;9.694;2023-06-26T05:58:29;100801.84;;;25.72;58.14
77147;BME280;66121;52.584;9.694;2023-06-26T06:00:55;100798.75;;;25.46;58.88
77147;BME280;66121;52.584;9.694;2023-06-26T06:03:21;100800.69;;;24.92;59.50
77147;BME280;66121;52.584;9.694;2023-06-26T06:05:46;100794.91;;;24.87;60.74
77147;BME280;66121;52.584;9.694;2023-06-26T06:08:11;100796.16;;;24.86;61.30
77147;BME280;66121;52.584;9.694;2023-06-26T06:10:37;100796.44;;;24.88;61.27
77147;BME280;66121;52.584;9.694;2023-06-26T06:13:02;100793.09;;;24.98;60.46
77147;BME280;66121;52.584;9.694;2023-06-26T06:15:27;100794.53;;;25.41;58.93
77147;BME280;66121;52.584;9.694;2023-06-26T06:17:53;100793.41;;;25.24;59.63
77147;BME280;66121;52.584;9.694;2023-06-26T06:20:18;100785.84;;;25.30;60.10
77147;BME280;66121;52.584;9.694;2023-06-26T06:22:46;100775.97;;;25.49;59.41
77147;BME280;66121;52.584;9.694;2023-06-26T06:25:13;100788.66;;;25.54;58.92
77147;BME280;66121;52.584;9.694;2023-06-26T06:27:38;100783.13;;;25.59;58.92
77147;BME280;66121;52.584;9.694;2023-06-26T06:30:04;100781.44;;;25.53;58.19
77147;BME280;66121;52.584;9.694;2023-06-26T06:32:29;100780.69;;;25.43;57.11
77147;BME280;66121;52.584;9.694;2023-06-26T06:34:55;100792.13;;;25.73;58.11
77147;BME280;66121;52.584;9.694;2023-06-26T06:37:20;100781.09;;;26.04;56.21
77147;BME280;66121;52.584;9.694;2023-06-26T06:39:45;100778.97;;;25.99;57.62
77147;BME280;66121;52.584;9.694;2023-06-26T06:42:11;100779.16;;;26.10;57.24
77147;BME280;66121;52.584;9.694;2023-06-26T06:44:36;100785.72;;;26.16;56.50
77147;BME280;66121;52.584;9.694;2023-06-26T06:47:01;100779.56;;;26.47;55.28
77147;BME280;66121;52.584;9.694;2023-06-26T06:49:26;100787.03;;;26.64;54.48
77147;BME280;66121;52.584;9.694;2023-06-26T06:51:52;100773.97;;;26.52;54.88
77147;BME280;66121;52.584;9.694;2023-06-26T06:54:17;100780.06;;;26.65;54.09
77147;BME280;66121;52.584;9.694;2023-06-26T06:56:43;100785.69;;;26.60;53.32
77147;BME280;66121;52.584;9.694;2023-06-26T06:59:08;100792.00;;;26.69;52.81
77147;BME280;66121;52.584;9.694;2023-06-26T07:01:34;100795.50;;;26.79;53.00
77147;BME280;66121;52.584;9.694;2023-06-26T07:03:59;100787.06;;;26.99;53.76
77147;BME280;66121;52.584;9.694;2023-06-26T07:06:24;100794.22;;;27.15;52.88
77147;BME280;66121;52.584;9.694;2023-06-26T07:08:50;100789.47;;;27.06;53.02
77147;BME280;66121;52.584;9.694;2023-06-26T07:11:15;100791.38;;;27.15;51.01
77147;BME280;66121;52.584;9.694;2023-06-26T07:13:41;100796.16;;;27.43;54.01
77147;BME280;66121;52.584;9.694;2023-06-26T07:16:06;100796.56;;;27.57;51.14
77147;BME280;66121;52.584;9.694;2023-06-26T07:18:31;100787.41;;;27.27;50.67
77147;BME280;66121;52.584;9.694;2023-06-26T07:20:57;100791.03;;;27.47;50.51
77147;BME280;66121;52.584;9.694;2023-06-26T07:23:22;100790.13;;;27.56;52.05
77147;BME280;66121;52.584;9.694;2023-06-26T07:25:48;100796.91;;;27.64;50.84
77147;BME280;66121;52.584;9.694;2023-06-26T07:28:13;100795.97;;;27.98;48.65
77147;BME280;66121;52.584;9.694;2023-06-26T07:30:39;100784.00;;;28.09;50.22
77147;BME280;66121;52.584;9.694;2023-06-26T07:33:04;100783.34;;;28.25;49.39
77147;BME280;66121;52.584;9.694;2023-06-26T07:35:30;100786.59;;;28.13;48.29
77147;BME280;66121;52.584;9.694;2023-06-26T07:37:55;100793.88;;;28.50;48.30
77147;BME280;66121;52.584;9.694;2023-06-26T07:40:21;100791.03;;;28.50;47.40
77147;BME280;66121;52.584;9.694;2023-06-26T07:42:46;100796.03;;;28.30;49.39
77147;BME280;66121;52.584;9.694;2023-06-26T07:45:11;100781.16;;;28.09;48.09
77147;BME280;66121;52.584;9.694;2023-06-26T07:47:40;100782.94;;;28.38;47.21
77147;BME280;66121;52.584;9.694;2023-06-26T07:50:06;100792.97;;;28.64;47.14
77147;BME280;66121;52.584;9.694;2023-06-26T07:52:31;100791.25;;;28.78;45.89
77147;BME280;66121;52.584;9.694;2023-06-26T07:54:57;100784.00;;;28.77;45.70
77147;BME280;66121;52.584;9.694;2023-06-26T07:57:23;100792.25;;;29.17;46.55
77147;BME280;66121;52.584;9.694;2023-06-26T07:59:48;100801.31;;;29.16;45.57
77147;BME280;66121;52.584;9.694;2023-06-26T08:02:13;100802.00;;;29.05;47.18
77147;BME280;66121;52.584;9.694;2023-06-26T08:04:39;100796.38;;;28.68;45.04
77147;BME280;66121;52.584;9.694;2023-06-26T08:07:04;100793.56;;;28.74;45.05
77147;BME280;66121;52.584;9.694;2023-06-26T08:09:30;100784.25;;;29.16;47.10
77147;BME280;66121;52.584;9.694;2023-06-26T08:11:56;100791.84;;;29.35;43.96
77147;BME280;66121;52.584;9.694;2023-06-26T08:14:22;100790.56;;;29.31;45.87
77147;BME280;66121;52.584;9.694;2023-06-26T08:16:48;100788.19;;;30.11;44.22
77147;BME280;66121;52.584;9.694;2023-06-26T08:19:14;100784.03;;;30.01;44.10
77147;BME280;66121;52.584;9.694;2023-06-26T08:21:41;100777.81;;;30.02;45.15
77147;BME280;66121;52.584;9.694;2023-06-26T08:24:06;100771.91;;;30.28;42.75
77147;BME280;66121;52.584;9.694;2023-06-26T08:26:32;100784.50;;;29.71;45.24
77147;BME280;66121;52.584;9.694;2023-06-26T08:28:57;100773.44;;;29.95;44.29
77147;BME280;66121;52.584;9.694;2023-06-26T08:31:22;100775.50;;;30.17;43.79
77147;BME280;66121;52.584;9.694;2023-06-26T08:33:48;100778.22;;;29.51;45.88
77147;BME280;66121;52.584;9.694;2023-06-26T08:36:13;100792.38;;;29.34;46.16
77147;BME280;66121;52.584;9.694;2023-06-26T08:38:39;100792.84;;;29.27;46.13
77147;BME280;66121;52.584;9.694;2023-06-26T08:41:07;100795.69;;;29.21;45.04
77147;BME280;66121;52.584;9.694;2023-06-26T08:43:34;100817.69;;;30.24;45.83
77147;BME280;66121;52.584;9.694;2023-06-26T08:46:00;100823.84;;;29.78;46.48
77147;BME280;66121;52.584;9.694;2023-06-26T08:48:25;100831.13;;;29.31;48.32
77147;BME280;66121;52.584;9.694;2023-06-26T08:50:53;100825.75;;;29.45;49.19
77147;BME280;66121;52.584;9.694;2023-06-26T08:56:03;100830.25;;;28.78;50.60
77147;BME280;66121;52.584;9.694;2023-06-26T08:58:28;100833.84;;;29.15;49.98
77147;BME280;66121;52.584;9.694;2023-06-26T09:00:54;100835.66;;;29.66;49.57
77147;BME280;66121;52.584;9.694;2023-06-26T09:03:21;100842.25;;;30.05;49.89
77147;BME280;66121;52.584;9.694;2023-06-26T09:05:46;100834.22;;;29.98;50.31
77147;BME280;66121;52.584;9.694;2023-06-26T09:08:12;100837.78;;;29.82;47.14
77147;BME280;66121;52.584;9.694;2023-06-26T09:10:38;100836.78;;;29.90;48.02
77147;BME280;66121;52.584;9.694;2023-06-26T09:13:04;100841.56;;;30.43;47.94
77147;BME280;66121;52.584;9.694;2023-06-26T09:15:43;100835.56;;;30.14;48.20
77147;BME280;66121;52.584;9.694;2023-06-26T09:18:08;100850.81;;;30.27;49.47
77147;BME280;66121;52.584;9.694;2023-06-26T09:20:34;100839.41;;;30.05;47.98
77147;BME280;66121;52.584;9.694;2023-06-26T09:23:00;100849.44;;;29.78;48.56
77147;BME280;66121;52.584;9.694;2023-06-26T09:25:27;100846.84;;;29.80;47.99
77147;BME280;66121;52.584;9.694;2023-06-26T09:27:53;100853.69;;;30.16;46.78
77147;BME280;66121;52.584;9.694;2023-06-26T09:30:19;100846.13;;;29.96;48.54
77147;BME280;66121;52.584;9.694;2023-06-26T09:32:45;100856.72;;;29.90;48.03
77147;BME280;66121;52.584;9.694;2023-06-26T09:35:10;100855.75;;;30.27;49.00
77147;BME280;66121;52.584;9.694;2023-06-26T09:37:36;100859.69;;;30.40;49.96
77147;BME280;66121;52.584;9.694;2023-06-26T09:40:02;100863.72;;;29.95;47.94
77147;BME280;66121;52.584;9.694;2023-06-26T09:42:29;100874.59;;;29.96;48.33
77147;BME280;66121;52.584;9.694;2023-06-26T09:44:54;100876.25;;;29.18;50.12
77147;BME280;66121;52.584;9.694;2023-06-26T09:47:20;100879.00;;;28.70;51.13
77147;BME280;66121;52.584;9.694;2023-06-26T09:49:46;100883.31;;;27.89;54.54
77147;BME280;66121;52.584;9.694;2023-06-26T09:52:15;100880.41;;;27.43;54.20
77147;BME280;66121;52.584;9.694;2023-06-26T09:54:44;100905.41;;;27.10;56.22
77147;BME280;66121;52.584;9.694;2023-06-26T09:57:15;100903.28;;;26.90;57.08
77147;BME280;66121;52.584;9.694;2023-06-26T09:59:42;100912.16;;;26.83;58.51
77147;BME280;66121;52.584;9.694;2023-06-26T10:02:10;100911.66;;;26.41;60.10
77147;BME280;66121;52.584;9.694;2023-06-26T10:04:36;100925.16;;;26.07;60.59
77147;BME280;66121;52.584;9.694;2023-06-26T10:07:04;100921.66;;;25.74;61.44
77147;BME280;66121;52.584;9.694;2023-06-26T10:09:31;100944.19;;;25.27;63.01
77147;BME280;66121;52.584;9.694;2023-06-26T10:12:02;100945.59;;;24.89;64.96
77147;BME280;66121;52.584;9.694;2023-06-26T10:14:34;100974.03;;;24.31;65.89
77147;BME280;66121;52.584;9.694;2023-06-26T10:17:13;100972.00;;;24.14;68.00
77147;BME280;66121;52.584;9.694;2023-06-26T10:19:42;100987.22;;;23.58;67.62
77147;BME280;66121;52.584;9.694;2023-06-26T10:22:09;100993.47;;;23.53;69.00
77147;BME280;66121;52.584;9.694;2023-06-26T10:24:36;100997.44;;;23.34;73.27
77147;BME280;66121;52.584;9.694;2023-06-26T10:27:08;100985.53;;;22.90;76.68
77147;BME280;66121;52.584;9.694;2023-06-26T10:29:36;100990.19;;;22.63;79.23
77147;BME280;66121;52.584;9.694;2023-06-26T10:32:03;100996.44;;;22.45;82.44
77147;BME280;66121;52.584;9.694;2023-06-26T10:34:29;101000.47;;;22.44;83.02
77147;BME280;66121;52.584;9.694;2023-06-26T10:37:01;101012.22;;;23.38;81.19
77147;BME280;66121;52.584;9.694;2023-06-26T10:39:27;101008.81;;;24.92;83.04
77147;BME280;66121;52.584;9.694;2023-06-26T10:42:08;100996.84;;;25.06;76.05
77147;BME280;66121;52.584;9.694;2023-06-26T10:44:43;101012.75;;;24.49;77.70
77147;BME280;66121;52.584;9.694;2023-06-26T10:47:10;101011.91;;;25.03;77.15
77147;BME280;66121;52.584;9.694;2023-06-26T10:49:36;101012.69;;;25.04;76.41
77147;BME280;66121;52.584;9.694;2023-06-26T10:52:02;101014.84;;;25.18;75.75
77147;BME280;66121;52.584;9.694;2023-06-26T10:54:32;101016.84;;;25.68;74.80
77147;BME280;66121;52.584;9.694;2023-06-26T10:56:58;101022.94;;;25.99;76.12
77147;BME280;66121;52.584;9.694;2023-06-26T10:59:25;101017.47;;;25.30;73.82
77147;BME280;66121;52.584;9.694;2023-06-26T11:01:56;101013.59;;;25.19;75.01
77147;BME280;66121;52.584;9.694;2023-06-26T11:04:45;101011.25;;;25.83;72.18
77147;BME280;66121;52.584;9.694;2023-06-26T11:10:08;101004.97;;;25.13;75.21
77147;BME280;66121;52.584;9.694;2023-06-26T11:12:41;101012.97;;;25.15;75.05
77147;BME280;66121;52.584;9.694;2023-06-26T11:15:13;101011.19;;;24.39;73.03
77147;BME280;66121;52.584;9.694;2023-06-26T11:17:39;101005.53;;;24.39;73.29
77147;BME280;66121;52.584;9.694;2023-06-26T11:20:06;101001.47;;;24.31;74.39
77147;BME280;66121;52.584;9.694;2023-06-26T11:22:36;101011.19;;;24.30;73.69
77147;BME280;66121;52.584;9.694;2023-06-26T11:25:02;101010.72;;;24.22;74.82
77147;BME280;66121;52.584;9.694;2023-06-26T11:27:37;101017.75;;;24.09;75.34
77147;BME280;66121;52.584;9.694;2023-06-26T11:30:06;101014.41;;;23.83;75.82
77147;BME280;66121;52.584;9.694;2023-06-26T11:32:32;101017.66;;;23.82;75.60
77147;BME280;66121;52.584;9.694;2023-06-26T11:35:00;101031.16;;;23.96;75.70
77147;BME280;66121;52.584;9.694;2023-06-26T11:37:26;101033.03;;;23.99;73.81
77147;BME280;66121;52.584;9.694;2023-06-26T11:39:51;101027.22;;;23.75;70.32
77147;BME280;66121;52.584;9.694;2023-06-26T11:42:20;101034.25;;;23.70;71.55
77147;BME280;66121;52.584;9.694;2023-06-26T11:44:46;101053.19;;;23.79;70.28
77147;BME280;66121;52.584;9.694;2023-06-26T11:47:19;101050.50;;;24.15;70.30
77147;BME280;66121;52.584;9.694;2023-06-26T11:49:48;101048.63;;;24.49;69.05
77147;BME280;66121;52.584;9.694;2023-06-26T11:52:15;101053.34;;;24.24;67.53
77147;BME280;66121;52.584;9.694;2023-06-26T11:54:41;101059.81;;;23.85;68.21
77147;BME280;66121;52.584;9.694;2023-06-26T11:57:07;101062.16;;;23.96;70.34
77147;BME280;66121;52.584;9.694;2023-06-26T11:59:34;101048.97;;;25.47;68.29
77147;BME280;66121;52.584;9.694;2023-06-26T12:02:04;101053.19;;;26.08;65.72
77147;BME280;66121;52.584;9.694;2023-06-26T12:04:32;101063.00;;;25.98;63.30
77147;BME280;66121;52.584;9.694;2023-06-26T12:06:57;101051.31;;;25.57;64.13
77147;BME280;66121;52.584;9.694;2023-06-26T12:09:23;101052.03;;;25.25;64.79
77147;BME280;66121;52.584;9.694;2023-06-26T12:11:53;101044.34;;;25.17;65.02
77147;BME280;66121;52.584;9.694;2023-06-26T12:14:20;101050.94;;;25.14;63.94
77147;BME280;66121;52.584;9.694;2023-06-26T12:16:45;101053.13;;;25.28;65.57
77147;BME280;66121;52.584;9.694;2023-06-26T12:19:11;101053.28;;;25.24;63.79
77147;BME280;66121;52.584;9.694;2023-06-26T12:24:01;101057.41;;;25.65;62.33
77147;BME280;66121;52.584;9.694;2023-06-26T12:26:28;101052.47;;;25.24;63.38
77147;BME280;66121;52.584;9.694;2023-06-26T12:29:02;101054.94;;;25.49;64.15
77147;BME280;66121;52.584;9.694;2023-06-26T12:31:28;101048.00;;;25.83;60.36
77147;BME280;66121;52.584;9.694;2023-06-26T12:33:56;101059.19;;;26.72;55.42
77147;BME280;66121;52.584;9.694;2023-06-26T12:36:22;101057.38;;;27.13;56.92
77147;BME280;66121;52.584;9.694;2023-06-26T12:38:48;101054.84;;;27.00;56.31
77147;BME280;66121;52.584;9.694;2023-06-26T12:41:14;101053.00;;;26.59;56.86
77147;BME280;66121;52.584;9.694;2023-06-26T12:43:41;101055.41;;;26.37;55.28
77147;BME280;66121;52.584;9.694;2023-06-26T12:46:06;101058.22;;;26.13;53.99
77147;BME280;66121;52.584;9.694;2023-06-26T12:48:44;101060.88;;;26.16;54.47
77147;BME280;66121;52.584;9.694;2023-06-26T12:51:16;101051.47;;;26.10;54.14
77147;BME280;66121;52.584;9.694;2023-06-26T12:53:41;101049.63;;;26.07;50.46
77147;BME280;66121;52.584;9.694;2023-06-26T12:56:08;101048.69;;;25.78;53.18
77147;BME280;66121;52.584;9.694;2023-06-26T12:58:34;101054.34;;;26.01;54.83